Newberry, Indiana
Current Conditions -  °F | °C
As of 2:35 PM on Thursday 27 Nov 2014 (Local Time) from KDCY Reporting Station
Overcast Overcast  
Wind Chill: 20°   Ceiling: 2300
Heat Index: 30°   Visibility: 10mi
Dew Point: 24°   Wind: 13mph
Humidity: 78%   Direction: 310°NW
Pressure: 30.4"   Gusts: NA
Location:  38.93°N, 87.02°W
Report Text: KDCY 271935Z AUTO 31011KT 10SM OVC023 M01/M05 A3040 RMK AO2 T10121046
Loading
Personal Weather Stations






























Interactive Weather Map New forecast layout! Learn more

10-Day Weather Forecast

Advertisements
Track Severe Weather on mobile